Terminal Aerodrome Forecast
Issued by NWS Wilmington, NC

Home | Current Version | Previous Version | Text Only | Print | Product List | Glossary On
Versions: 1 2 3 4 5 6 7 8 9 10 11 12 13 14 15 16 17 18 19
618
FTUS42 KILM 281210 CCB
TAFLBT
TAF COR
KLBT 281210Z 2812/2912 05006KT 3SM BR BKN003
      TEMPO 2812/2814 2SM BR SCT005
     FM281400 06007KT P6SM SCT015 SCT050 BKN120
     FM281800 06008KT P6SM VCSH SCT020 BKN040
      TEMPO 2820/2824 6SM -SHRA BKN030
     FM290200 04003KT P6SM SCT050 BKN120
     FM290700 03003KT 2SM BR BKN006=

USA.gov is the U.S. government's official web portal to all federal, state and local government web resources and services.